LIPH/TSF METAR and TAF weather

Enter ICAO airport designator
Station Type Date Time Source
LIPH METAR 2021/03/08 11:50 UTC NOAA

LIPH 081150Z VRB02KT CAVOK 11/01 Q1018


Station Type Date Time Source
LIPH Decoded METAR 2021/03/08 11:50 UTC NOAA

Treviso / S. Angelo, Italy (LIPH) 45-39N 012-11E 23M
Mar 08, 2021 - 06:50 AM EST / 2021.03.08 1150 UTC
Wind: Variable at 2 MPH (2 KT):0
Visibility: greater than 7 mile(s):0
Temperature: 51 F (11 C)
Dew Point: 33 F (1 C)
Relative Humidity: 50%
Pressure (altimeter): 30.06 in. Hg (1018 hPa)
ob: LIPH 081150Z VRB02KT CAVOK 11/01 Q1018
cycle: 12

Station Type Date Time Source
LIPH TAF 2021/03/08 12:21 UTC NOAA

TAF LIPH 081100Z 0812/0912 VRB04KT CAVOK
TEMPO 0906/0912 04010KT

Example: see airport list